Latest Weather Observations for Flinders Reef

IDQ60801

Issued at 2:02 pm EST Sunday 1 May 2016 (issued every 30 minutes, with the page automatically refreshed every 10 minutes)

About weather observations | Map of weather stations | Latest weather observations for QLD | Other Formats
Station Details ID: 200783 Name: FLINDERS REEF Lat: -17.72 Lon: 148.45 Height: 2.6 m
Data from the previous 72 hours. | See also: Recent months at Flinders Reef
Date/Time
EST
Temp
°C
App
Temp
°C
Dew
Point
Rel
Hum
%
Delta-T
°C
Wind Press
QNH
hPa
Press
MSL
hPa
Rain
since 9 am
mm
Dir
 
Spd
km/h
Gust
km/h
Spd
kts
Gust
kts
01/02:00pm 27.3 - - - - ESE 26 28 14 15 1013.4 - -
01/01:30pm 27.5 - - - - ESE 26 28 14 15 1013.7 - -
01/01:24pm 27.4 - - - - ESE 26 - 14 - - 1013.6 -
01/01:00pm 27.3 - - - - ESE 26 30 14 16 1014.0 - -
01/12:30pm 27.3 - - - - SE 28 30 15 16 1014.5 - -
01/12:24pm 27.5 - - - - SE 28 - 15 - - 1014.5 -
01/12:00pm 27.4 - - - - ESE 26 28 14 15 1014.8 - -
01/11:30am 27.4 - - - - ESE 26 30 14 16 1015.1 - -
01/11:24am 27.4 - - - - ESE 26 - 14 - - 1015.1 -
01/11:00am 27.3 - - - - ESE 26 32 14 17 1015.7 - -
01/10:30am 27.5 - - - - ESE 28 32 15 17 1016.1 - -
01/10:24am 27.2 - - - - ESE 28 - 15 - - 1016.0 -
01/10:00am 27.2 - - - - ESE 28 32 15 17 1016.2 - -
01/09:30am 27.5 - - - - ESE 30 33 16 18 1016.3 - -
01/09:24am 27.4 - - - - ESE 30 - 16 - - 1016.2 -
01/09:00am 27.3 - - - - ESE 32 35 17 19 1016.3 - -
01/08:30am 27.4 - - - - ESE 30 35 16 19 1016.2 - -
01/08:24am 27.4 - - - - ESE 30 - 16 - - 1016.0 -
01/08:00am 27.2 - - - - E 32 35 17 19 1015.9 - -
01/07:30am 27.1 - - - - ESE 32 35 17 19 1015.7 - -
01/07:24am 27.2 - - - - ESE 32 - 17 - - 1015.5 -
01/07:00am 27.1 - - - - E 33 37 18 20 1015.4 - -
01/06:30am 27.3 - - - - E 30 35 16 19 1015.2 - -
01/06:24am 27.2 - - - - E 30 - 16 - - 1015.1 -
01/06:00am 27.0 - - - - ESE 33 39 18 21 1015.0 - -
01/05:30am 27.1 - - - - ESE 33 39 18 21 1014.7 - -
01/05:24am 27.0 - - - - ESE 33 - 18 - - 1014.5 -
01/05:00am 27.0 - - - - ESE 35 39 19 21 1014.5 - -
01/04:30am 27.1 - - - - ESE 35 41 19 22 1014.3 - -
01/04:24am 26.9 - - - - ESE 35 - 19 - - 1014.1 -
01/04:00am 27.1 - - - - SE 33 37 18 20 1014.3 - -
01/03:30am 26.9 - - - - ESE 33 37 18 20 1014.1 - -
01/03:24am 27.0 - - - - ESE 33 - 18 - - 1014.1 -
01/03:00am 27.0 - - - - ESE 33 39 18 21 1014.1 - -
01/02:30am 27.0 - - - - ESE 33 39 18 21 1014.3 - -
01/02:24am 27.0 - - - - ESE 33 - 18 - - 1014.2 -
01/02:00am 27.3 - - - - ESE 32 35 17 19 1014.5 - -
01/01:30am 27.0 - - - - ESE 32 35 17 19 1014.6 - -
01/01:24am 27.0 - - - - ESE 32 - 17 - - 1014.5 -
01/01:00am 27.0 - - - - SE 33 43 18 23 1014.7 - -
01/12:30am 27.2 - - - - SE 35 41 19 22 1014.9 - -
01/12:24am 27.1 - - - - SE 35 - 19 - - 1014.9 -
01/12:00am 27.2 - - - - SE 35 41 19 22 1015.0 - -
 
Date/Time
EST
Temp
°C
App
Temp
°C
Dew
Point
Rel
Hum
%
Delta-T
°C
Wind Press
QNH
hPa
Press
MSL
hPa
Rain
since 9 am
mm
Dir
 
Spd
km/h
Gust
km/h
Spd
kts
Gust
kts
30/11:30pm 27.3 - - - - SE 37 41 20 22 1015.2 - -
30/11:24pm 27.1 - - - - SE 35 - 19 - - 1015.1 -
30/11:00pm 27.2 - - - - SE 35 39 19 21 1015.3 - -
30/10:30pm 27.3 - - - - SE 35 39 19 21 1015.3 - -
30/10:24pm 27.3 - - - - SE 35 - 19 - - 1015.2 -
30/10:00pm 27.3 - - - - SE 35 41 19 22 1015.3 - -
30/09:30pm 27.3 - - - - SE 35 39 19 21 1015.4 - -
30/09:24pm 27.4 - - - - SE 35 - 19 - - 1015.2 -
30/09:00pm 27.4 - - - - SE 33 37 18 20 1015.2 - -
30/08:30pm 27.2 - - - - SE 33 39 18 21 1015.1 - -
30/08:24pm 27.4 - - - - SE 33 - 18 - - 1015.0 -
30/08:00pm 27.3 - - - - SE 33 41 18 22 1014.9 - -
30/07:30pm 27.1 - - - - SE 33 39 18 21 1014.7 - -
30/07:24pm 27.1 - - - - SE 35 - 19 - - 1014.5 -
30/07:00pm 27.1 - - - - SE 35 39 19 21 1014.4 - -
30/06:30pm 27.1 - - - - SE 32 35 17 19 1014.2 - -
30/06:24pm 27.2 - - - - SE 32 - 17 - - 1014.0 -
30/06:00pm 27.3 - - - - SE 32 35 17 19 1014.0 - -
30/05:30pm 27.1 - - - - SE 32 35 17 19 1013.8 - -
30/05:24pm 27.2 - - - - SE 32 - 17 - - 1013.6 -
30/05:00pm 27.2 - - - - SE 30 33 16 18 1013.8 - -
30/04:30pm 27.2 - - - - SE 30 35 16 19 1013.5 - -
30/04:24pm 27.2 - - - - SE 30 - 16 - - 1013.3 -
30/04:00pm 27.2 - - - - SE 30 33 16 18 1013.4 - -
30/03:30pm 27.1 - - - - ESE 30 35 16 19 1013.2 - -
30/03:24pm 27.3 - - - - ESE 30 - 16 - - 1013.2 -
30/03:00pm 27.0 - - - - ESE 32 35 17 19 1013.2 - -
30/02:30pm 27.2 - - - - ESE 32 35 17 19 1013.4 - -
30/02:24pm 27.3 - - - - ESE 32 - 17 - - 1013.3 -
30/02:00pm 27.4 - - - - ESE 30 35 16 19 1013.7 - -
30/01:30pm 27.1 - - - - SE 30 33 16 18 1014.0 - -
30/01:24pm 27.2 - - - - SE 30 - 16 - - 1013.9 -
30/01:00pm 27.5 - - - - SE 28 33 15 18 1014.3 - -
30/12:30pm 27.2 - - - - SE 32 35 17 19 1014.7 - -
30/12:24pm 27.1 - - - - SE 32 - 17 - - 1014.7 -
30/12:00pm 27.3 - - - - SE 32 35 17 19 1015.1 - -
30/11:30am 27.4 - - - - ESE 32 35 17 19 1015.5 - -
30/11:24am 27.4 - - - - ESE 32 - 17 - - 1015.4 -
30/11:00am 27.3 - - - - SE 32 35 17 19 1015.7 - -
30/10:30am 27.2 - - - - SE 33 39 18 21 1016.0 - -
30/10:24am 27.4 - - - - SE 33 - 18 - - 1015.9 -
30/10:00am 27.2 - - - - SE 33 37 18 20 1016.1 - -
30/09:30am 27.1 - - - - ESE 35 39 19 21 1016.1 - -
30/09:24am 27.4 - - - - ESE 33 - 18 - - 1016.0 -
30/09:00am 27.4 - - - - ESE 32 37 17 20 1016.0 - -
30/08:30am 27.2 - - - - ESE 33 37 18 20 1015.9 - -
30/08:24am 27.2 - - - - ESE 32 - 17 - - 1015.7 -
30/08:00am 27.0 - - - - SE 35 39 19 21 1015.7 - -
30/07:30am 27.1 - - - - ESE 35 43 19 23 1015.4 - -
30/07:24am 26.8 - - - - ESE 35 - 19 - - 1015.3 -
30/07:00am 26.9 - - - - ESE 35 39 19 21 1015.5 - -
30/06:30am 27.0 - - - - SE 37 43 20 23 1015.3 - -
30/06:24am 27.0 - - - - SE 35 - 19 - - 1015.1 -
30/06:00am 26.9 - - - - ESE 33 39 18 21 1014.9 - -
30/05:30am 27.2 - - - - ESE 35 41 19 22 1014.6 - -
30/05:24am 26.9 - - - - ESE 35 - 19 - - 1014.4 -
30/05:00am 27.0 - - - - ESE 35 43 19 23 1014.4 - -
30/04:30am 27.0 - - - - ESE 37 41 20 22 1014.2 - -
30/04:24am 26.9 - - - - ESE 37 - 20 - - 1014.1 -
30/04:00am 26.9 - - - - ESE 35 41 19 22 1014.2 - -
30/03:30am 26.9 - - - - ESE 33 39 18 21 1014.3 - -
30/03:24am 27.0 - - - - ESE 33 - 18 - - 1014.2 -
30/03:00am 26.9 - - - - ESE 33 39 18 21 1014.6 - -
30/02:30am 27.1 - - - - ESE 35 41 19 22 1014.7 - -
30/02:24am 26.9 - - - - ESE 35 - 19 - - 1014.5 -
30/02:00am 26.8 - - - - ESE 37 43 20 23 1014.7 - -
30/01:30am 26.9 - - - - ESE 35 43 19 23 1014.9 - -
30/01:24am 26.9 - - - - ESE 37 - 20 - - 1014.8 -
30/01:00am 26.9 - - - - ESE 37 43 20 23 1015.0 - -
30/12:30am 26.9 - - - - ESE 37 43 20 23 1015.4 - -
30/12:24am 27.1 - - - - ESE 37 - 20 - - 1015.3 -
30/12:00am 26.8 - - - - SE 37 43 20 23 1015.6 - -
 
Date/Time
EST
Temp
°C
App
Temp
°C
Dew
Point
Rel
Hum
%
Delta-T
°C
Wind Press
QNH
hPa
Press
MSL
hPa
Rain
since 9 am
mm
Dir
 
Spd
km/h
Gust
km/h
Spd
kts
Gust
kts
29/11:30pm 27.0 - - - - SE 35 41 19 22 1016.0 - -
29/11:24pm 26.7 - - - - SE 35 - 19 - - 1015.9 -
29/11:00pm 27.0 - - - - ESE 37 41 20 22 1016.4 - -
29/10:30pm 27.0 - - - - SE 35 43 19 23 1016.5 - -
29/10:24pm 27.1 - - - - SE 37 - 20 - - 1016.4 -
29/10:00pm 27.0 - - - - SE 35 41 19 22 1016.4 - -
29/09:30pm 27.1 - - - - ESE 35 41 19 22 1016.3 - -
29/09:24pm 26.9 - - - - ESE 37 - 20 - - 1016.1 -
29/09:00pm 27.2 - - - - ESE 35 41 19 22 1016.2 - -
29/08:30pm 27.1 - - - - SE 37 41 20 22 1015.9 - -
29/08:24pm 26.9 - - - - SE 35 - 19 - - 1015.7 -
29/08:00pm 27.2 - - - - SE 35 39 19 21 1015.6 - -
29/07:30pm 27.1 - - - - ESE 35 41 19 22 1015.1 - -
29/07:24pm 27.2 - - - - ESE 37 - 20 - - 1014.9 -
29/07:00pm 27.1 - - - - ESE 37 41 20 22 1014.8 - -
29/06:30pm 27.3 - - - - ESE 35 39 19 21 1014.6 - -
29/06:24pm 27.1 - - - - ESE 35 - 19 - - 1014.5 -
29/06:00pm 27.1 - - - - ESE 35 41 19 22 1014.2 - -
29/05:30pm 27.0 - - - - ESE 35 41 19 22 1013.9 - -
29/05:24pm 27.2 - - - - ESE 35 - 19 - - 1013.8 -
29/05:00pm 27.3 - - - - ESE 35 41 19 22 1013.6 - -
29/04:30pm 27.2 - - - - ESE 33 39 18 21 1013.6 - -
29/04:24pm 27.2 - - - - ESE 33 - 18 - - 1013.5 -
29/04:00pm 27.3 - - - - ESE 33 39 18 21 1013.5 - -
29/03:30pm 27.2 - - - - ESE 32 37 17 20 1013.3 - -
29/03:24pm 27.1 - - - - ESE 32 - 17 - - 1013.2 -
29/03:00pm 27.1 - - - - ESE 33 37 18 20 1013.2 - -
29/02:30pm 27.3 - - - - ESE 33 39 18 21 1013.3 - -
29/02:24pm 27.6 - - - - ESE 35 - 19 - - 1013.3 -
29/02:00pm 27.2 - - - - ESE 35 39 19 21 1013.5 - -
29/01:30pm 27.3 - - - - ESE 33 41 18 22 1013.6 - -
29/01:24pm 27.1 - - - - ESE 33 - 18 - - 1013.6 -
29/01:00pm 27.2 - - - - ESE 33 39 18 21 1014.1 - -
29/12:30pm 27.2 - - - - ESE 33 39 18 21 1014.4 - -
29/12:24pm 27.3 - - - - ESE 35 - 19 - - 1014.4 -
29/12:00pm 27.3 - - - - ESE 35 39 19 21 1014.8 - -
29/11:30am 27.3 - - - - ESE 35 41 19 22 1015.2 - -
29/11:24am 27.0 - - - - ESE 35 - 19 - - 1015.1 -
29/11:00am 27.2 - - - - ESE 35 41 19 22 1015.7 - -
29/10:30am 27.2 - - - - ESE 35 41 19 22 1015.9 - -
29/10:24am 27.4 - - - - ESE 35 - 19 - - 1015.9 -
29/10:00am 27.4 - - - - ESE 35 41 19 22 1016.1 - -
29/09:30am 27.4 - - - - ESE 33 41 18 22 1016.1 - -
29/09:24am 27.5 - - - - ESE 35 - 19 - - 1016.0 -
29/09:00am 27.3 - - - - ESE 37 43 20 23 1015.9 - -
29/08:30am 27.1 - - - - ESE 37 43 20 23 1015.7 - -
29/08:24am 27.2 - - - - ESE 39 - 21 - - 1015.6 -
29/08:00am 27.2 - - - - ESE 39 44 21 24 1015.6 - -
29/07:30am 27.4 - - - - ESE 37 43 20 23 1015.3 - -
29/07:24am 27.2 - - - - ESE 37 - 20 - - 1015.1 -
29/07:00am 27.1 - - - - ESE 41 46 22 25 1015.0 - -
29/06:30am 26.8 - - - - ESE 39 44 21 24 1014.8 - -
29/06:24am 26.7 - - - - ESE 39 - 21 - - 1014.6 -
29/06:00am 26.5 - - - - ESE 37 43 20 23 1014.5 - -
29/05:30am 26.6 - - - - ESE 37 43 20 23 1014.2 - -
29/05:24am 26.6 - - - - ESE 37 - 20 - - 1014.0 -
29/05:00am 26.7 - - - - SE 35 41 19 22 1013.9 - -
29/04:30am 26.3 - - - - ESE 30 35 16 19 1013.8 - -
29/04:24am 26.2 - - - - ESE 32 - 17 - - 1013.6 -
29/04:00am 26.2 - - - - SE 33 35 18 19 1013.7 - -
29/03:30am 26.3 - - - - ESE 32 37 17 20 1013.6 - -
29/03:24am 26.2 - - - - ESE 32 - 17 - - 1013.5 -
29/03:00am 26.3 - - - - ESE 33 39 18 21 1013.8 - -
29/02:30am 26.3 - - - - ESE 32 37 17 20 1013.9 - -
29/02:24am 26.0 - - - - ESE 32 - 17 - - 1013.8 -
29/02:00am 25.8 - - - - ESE 30 35 16 19 1014.2 - -
29/01:30am 25.6 - - - - ESE 33 41 18 22 1014.5 - -
29/01:24am 25.6 - - - - ESE 35 - 19 - - 1014.4 -
29/01:00am 26.4 - - - - ESE 37 46 20 25 1014.8 - -
29/12:30am 27.2 - - - - ESE 37 43 20 23 1015.1 - -
29/12:24am 27.0 - - - - ESE 39 - 21 - - 1015.0 -
29/12:00am 27.1 - - - - ESE 37 43 20 23 1015.3 - -
 
Date/Time
EST
Temp
°C
App
Temp
°C
Dew
Point
Rel
Hum
%
Delta-T
°C
Wind Press
QNH
hPa
Press
MSL
hPa
Rain
since 9 am
mm
Dir
 
Spd
km/h
Gust
km/h
Spd
kts
Gust
kts
28/11:30pm 27.1 - - - - ESE 39 46 21 25 1015.5 - -
28/11:24pm 27.2 - - - - ESE 39 - 21 - - 1015.4 -
28/11:00pm 27.1 - - - - ESE 39 44 21 24 1015.6 - -
28/10:30pm 27.3 - - - - ESE 37 41 20 22 1015.9 - -
28/10:24pm 27.2 - - - - ESE 37 - 20 - - 1015.8 -
28/10:00pm 27.0 - - - - ESE 35 43 19 23 1016.1 - -
28/09:30pm 27.1 - - - - ESE 35 43 19 23 1015.8 - -
28/09:24pm 27.1 - - - - ESE 33 - 18 - - 1015.7 -
28/09:00pm 27.2 - - - - ESE 33 39 18 21 1015.7 - -
28/08:30pm 27.1 - - - - ESE 35 41 19 22 1015.2 - -
28/08:24pm 27.1 - - - - ESE 35 - 19 - - 1015.0 -
28/08:00pm 27.1 - - - - SE 35 39 19 21 1014.9 - -
28/07:30pm 27.1 - - - - SE 33 39 18 21 1014.6 - -
28/07:24pm 27.1 - - - - SE 33 - 18 - - 1014.4 -
28/07:00pm 26.9 - - - - SE 33 37 18 20 1014.3 - -
28/06:30pm 27.1 - - - - SE 33 39 18 21 1014.2 - -
28/06:24pm 27.1 - - - - SE 33 - 18 - - 1014.1 -
28/06:00pm 26.9 - - - - ESE 33 39 18 21 1014.0 - -
28/05:30pm 27.0 - - - - SE 33 37 18 20 1013.9 - -
28/05:24pm 27.1 - - - - SE 33 - 18 - - 1013.8 -
28/05:00pm 27.4 - - - - SE 30 35 16 19 1013.7 - -
28/04:30pm 27.1 - - - - ESE 30 33 16 18 1013.5 - -
28/04:24pm 27.1 - - - - SE 30 - 16 - - 1013.4 -
28/04:00pm 27.1 - - - - ESE 30 35 16 19 1013.4 - -
28/03:30pm 27.3 - - - - ESE 30 37 16 20 1013.1 - -
28/03:24pm 27.4 - - - - ESE 33 - 18 - - 1012.9 -
28/03:00pm 27.2 - - - - ESE 32 35 17 19 1013.0 - -
28/02:30pm 27.0 - - - - ESE 32 35 17 19 1012.9 - -
28/02:24pm 27.0 - - - - ESE 32 - 17 - - 1012.8 -

Other Formats:

Comma delimited format used in spreadsheet applications
http://www.bom.gov.au/fwo/IDQ60801/IDQ60801.94290.axf

JavaScript Object Notation format (JSON) in row-major order
http://www.bom.gov.au/fwo/IDQ60801/IDQ60801.94290.json